EYVI/VNO METAR and TAF weather

Enter ICAO airport designator
Station Type Date Time Source
EYVI METAR 2018/01/16 09:20 UTC NOAA

EYVI 160920Z 15016KT CAVOK M08/M16 Q1012 R19/1///95 NOSIG


Station Type Date Time Source
EYVI Decoded METAR 2018/01/16 09:20 UTC NOAA

Vilnius, Lithuania (EYVI) 54-38N 025-06E 156M
Jan 16, 2018 - 04:20 AM EST / 2018.01.16 0920 UTC
Wind: from the SSE (150 degrees) at 18 MPH (16 KT):0
Visibility: greater than 7 mile(s):0
Temperature: 17 F (-8 C)
Windchill: 1 F (-17 C):1
Dew Point: 3 F (-16 C)
Relative Humidity: 52%
Pressure (altimeter): 29.88 in. Hg (1012 hPa)
ob: EYVI 160920Z 15016KT CAVOK M08/M16 Q1012 R19/1///95 NOSIG
cycle: 9

Station Type Date Time Source
EYVI TAF 2018/01/16 06:09 UTC NOAA

TAF EYVI 160500Z 1606/1706 14016G26KT 7000 OVC015
BECMG 1609/1610 14026G36KT
BECMG 1621/1622 3000 SN OVC005
TEMPO 1622/1706 1200 BLSN OVC003


Example: see airport list